sensor_id;sensor_type;location;lat;lon;timestamp;temperature;humidity
51476;DHT22;37554;50.362;7.568;2023-01-24T00:01:02;10.50;58.20
51476;DHT22;37554;50.362;7.568;2023-01-24T00:03:28;10.50;58.10
51476;DHT22;37554;50.362;7.568;2023-01-24T00:05:53;10.50;58.10
51476;DHT22;37554;50.362;7.568;2023-01-24T00:08:20;10.50;58.10
51476;DHT22;37554;50.362;7.568;2023-01-24T00:10:48;10.50;58.00
51476;DHT22;37554;50.362;7.568;2023-01-24T00:13:15;10.50;57.90
51476;DHT22;37554;50.362;7.568;2023-01-24T00:15:40;10.50;57.80
51476;DHT22;37554;50.362;7.568;2023-01-24T00:18:06;10.50;57.90
51476;DHT22;37554;50.362;7.568;2023-01-24T00:20:32;10.50;57.80
51476;DHT22;37554;50.362;7.568;2023-01-24T00:22:57;10.50;57.90
51476;DHT22;37554;50.362;7.568;2023-01-24T00:25:23;10.50;57.80
51476;DHT22;37554;50.362;7.568;2023-01-24T00:27:49;10.50;57.70
51476;DHT22;37554;50.362;7.568;2023-01-24T00:30:14;10.50;57.70
51476;DHT22;37554;50.362;7.568;2023-01-24T00:32:40;10.50;57.70
51476;DHT22;37554;50.362;7.568;2023-01-24T00:35:06;10.50;57.70
51476;DHT22;37554;50.362;7.568;2023-01-24T00:37:32;10.50;57.60
51476;DHT22;37554;50.362;7.568;2023-01-24T00:39:58;10.50;57.60
51476;DHT22;37554;50.362;7.568;2023-01-24T00:42:23;10.50;57.50
51476;DHT22;37554;50.362;7.568;2023-01-24T00:44:49;10.50;57.50
51476;DHT22;37554;50.362;7.568;2023-01-24T00:47:15;10.50;57.30
51476;DHT22;37554;50.362;7.568;2023-01-24T00:49:40;10.50;57.20
51476;DHT22;37554;50.362;7.568;2023-01-24T00:52:06;10.50;57.30
51476;DHT22;37554;50.362;7.568;2023-01-24T00:54:31;10.50;57.20
51476;DHT22;37554;50.362;7.568;2023-01-24T00:56:57;10.50;57.20
51476;DHT22;37554;50.362;7.568;2023-01-24T00:59:22;10.50;57.10
51476;DHT22;37554;50.362;7.568;2023-01-24T01:01:48;10.40;57.10
51476;DHT22;37554;50.362;7.568;2023-01-24T01:04:14;10.50;57.00
51476;DHT22;37554;50.362;7.568;2023-01-24T01:06:39;10.50;57.00
51476;DHT22;37554;50.362;7.568;2023-01-24T01:09:05;10.50;57.00
51476;DHT22;37554;50.362;7.568;2023-01-24T01:11:31;10.50;57.00
51476;DHT22;37554;50.362;7.568;2023-01-24T01:13:57;10.50;57.00
51476;DHT22;37554;50.362;7.568;2023-01-24T01:16:23;10.50;56.90
51476;DHT22;37554;50.362;7.568;2023-01-24T01:18:50;10.50;56.80
51476;DHT22;37554;50.362;7.568;2023-01-24T01:21:19;10.50;56.90
51476;DHT22;37554;50.362;7.568;2023-01-24T01:23:45;10.40;56.90
51476;DHT22;37554;50.362;7.568;2023-01-24T01:26:17;10.50;56.90
51476;DHT22;37554;50.362;7.568;2023-01-24T01:28:43;10.40;56.80
51476;DHT22;37554;50.362;7.568;2023-01-24T01:31:08;10.40;56.80
51476;DHT22;37554;50.362;7.568;2023-01-24T01:33:34;10.40;56.70
51476;DHT22;37554;50.362;7.568;2023-01-24T01:36:00;10.40;56.70
51476;DHT22;37554;50.362;7.568;2023-01-24T01:38:26;10.40;56.70
51476;DHT22;37554;50.362;7.568;2023-01-24T01:40:53;10.40;57.40
51476;DHT22;37554;50.362;7.568;2023-01-24T01:43:27;10.40;56.70
51476;DHT22;37554;50.362;7.568;2023-01-24T01:45:57;10.40;56.60
51476;DHT22;37554;50.362;7.568;2023-01-24T01:48:34;10.40;56.70
51476;DHT22;37554;50.362;7.568;2023-01-24T01:51:22;10.40;56.80
51476;DHT22;37554;50.362;7.568;2023-01-24T01:54:01;10.40;56.70
51476;DHT22;37554;50.362;7.568;2023-01-24T01:56:38;10.40;56.80
51476;DHT22;37554;50.362;7.568;2023-01-24T01:59:16;10.40;56.70
51476;DHT22;37554;50.362;7.568;2023-01-24T02:01:44;10.40;56.60
51476;DHT22;37554;50.362;7.568;2023-01-24T02:04:20;10.40;56.50
51476;DHT22;37554;50.362;7.568;2023-01-24T02:09:21;10.40;56.50
51476;DHT22;37554;50.362;7.568;2023-01-24T02:11:50;10.40;56.50
51476;DHT22;37554;50.362;7.568;2023-01-24T02:14:18;10.40;56.50
51476;DHT22;37554;50.362;7.568;2023-01-24T02:17:04;10.40;56.60
51476;DHT22;37554;50.362;7.568;2023-01-24T02:27:56;10.40;56.50
51476;DHT22;37554;50.362;7.568;2023-01-24T02:30:24;10.40;56.50
51476;DHT22;37554;50.362;7.568;2023-01-24T02:32:49;10.40;56.60
51476;DHT22;37554;50.362;7.568;2023-01-24T02:35:41;10.40;56.60
51476;DHT22;37554;50.362;7.568;2023-01-24T02:38:13;10.40;56.50
51476;DHT22;37554;50.362;7.568;2023-01-24T02:40:40;10.40;56.50
51476;DHT22;37554;50.362;7.568;2023-01-24T02:43:07;10.40;56.50
51476;DHT22;37554;50.362;7.568;2023-01-24T02:45:34;10.40;56.50
51476;DHT22;37554;50.362;7.568;2023-01-24T02:48:00;10.40;56.50
51476;DHT22;37554;50.362;7.568;2023-01-24T02:50:29;10.40;56.50
51476;DHT22;37554;50.362;7.568;2023-01-24T02:53:14;10.40;56.50
51476;DHT22;37554;50.362;7.568;2023-01-24T02:56:03;10.40;56.50
51476;DHT22;37554;50.362;7.568;2023-01-24T02:58:49;10.40;56.50
51476;DHT22;37554;50.362;7.568;2023-01-24T03:01:15;10.30;56.50
51476;DHT22;37554;50.362;7.568;2023-01-24T03:03:42;10.30;56.50
51476;DHT22;37554;50.362;7.568;2023-01-24T03:06:09;10.30;56.50
51476;DHT22;37554;50.362;7.568;2023-01-24T03:08:36;10.30;56.50
51476;DHT22;37554;50.362;7.568;2023-01-24T03:11:02;10.30;56.60
51476;DHT22;37554;50.362;7.568;2023-01-24T03:13:28;10.30;56.60
51476;DHT22;37554;50.362;7.568;2023-01-24T03:16:12;10.30;56.50
51476;DHT22;37554;50.362;7.568;2023-01-24T03:18:57;10.30;56.50
51476;DHT22;37554;50.362;7.568;2023-01-24T03:21:41;10.30;56.60
51476;DHT22;37554;50.362;7.568;2023-01-24T03:24:25;10.30;56.60
51476;DHT22;37554;50.362;7.568;2023-01-24T03:27:09;10.30;56.50
51476;DHT22;37554;50.362;7.568;2023-01-24T03:29:54;10.30;56.50
51476;DHT22;37554;50.362;7.568;2023-01-24T03:32:38;10.30;56.50
51476;DHT22;37554;50.362;7.568;2023-01-24T03:35:23;10.30;56.60
51476;DHT22;37554;50.362;7.568;2023-01-24T03:37:48;10.30;56.50
51476;DHT22;37554;50.362;7.568;2023-01-24T03:40:33;10.30;56.50
51476;DHT22;37554;50.362;7.568;2023-01-24T03:43:00;10.30;56.50
51476;DHT22;37554;50.362;7.568;2023-01-24T03:45:28;10.30;56.50
51476;DHT22;37554;50.362;7.568;2023-01-24T03:47:55;10.30;56.50
51476;DHT22;37554;50.362;7.568;2023-01-24T03:50:42;10.30;56.50
51476;DHT22;37554;50.362;7.568;2023-01-24T03:53:29;10.30;56.50
51476;DHT22;37554;50.362;7.568;2023-01-24T03:56:00;10.30;56.60
51476;DHT22;37554;50.362;7.568;2023-01-24T03:58:27;10.30;56.50
51476;DHT22;37554;50.362;7.568;2023-01-24T04:00:54;10.30;56.50
51476;DHT22;37554;50.362;7.568;2023-01-24T04:03:20;10.30;56.60
51476;DHT22;37554;50.362;7.568;2023-01-24T04:05:49;10.30;56.50
51476;DHT22;37554;50.362;7.568;2023-01-24T04:08:16;10.30;56.50
51476;DHT22;37554;50.362;7.568;2023-01-24T04:10:42;10.30;56.40
51476;DHT22;37554;50.362;7.568;2023-01-24T04:13:09;10.30;56.40
51476;DHT22;37554;50.362;7.568;2023-01-24T04:15:35;10.30;56.50
51476;DHT22;37554;50.362;7.568;2023-01-24T04:18:02;10.30;56.50
51476;DHT22;37554;50.362;7.568;2023-01-24T04:20:31;10.30;56.40
51476;DHT22;37554;50.362;7.568;2023-01-24T04:23:00;10.20;56.40
51476;DHT22;37554;50.362;7.568;2023-01-24T04:25:26;10.20;56.40
51476;DHT22;37554;50.362;7.568;2023-01-24T04:27:52;10.20;56.50
51476;DHT22;37554;50.362;7.568;2023-01-24T04:30:18;10.20;56.50
51476;DHT22;37554;50.362;7.568;2023-01-24T04:32:44;10.20;56.40
51476;DHT22;37554;50.362;7.568;2023-01-24T04:35:18;10.20;56.40
51476;DHT22;37554;50.362;7.568;2023-01-24T04:37:44;10.20;56.40
51476;DHT22;37554;50.362;7.568;2023-01-24T04:40:10;10.20;56.40
51476;DHT22;37554;50.362;7.568;2023-01-24T04:42:37;10.20;56.50
51476;DHT22;37554;50.362;7.568;2023-01-24T04:45:03;10.20;56.40
51476;DHT22;37554;50.362;7.568;2023-01-24T04:47:29;10.20;56.40
51476;DHT22;37554;50.362;7.568;2023-01-24T04:49:55;10.20;56.40
51476;DHT22;37554;50.362;7.568;2023-01-24T04:52:20;10.20;56.40
51476;DHT22;37554;50.362;7.568;2023-01-24T04:54:46;10.20;56.40
51476;DHT22;37554;50.362;7.568;2023-01-24T04:57:12;10.20;56.40
51476;DHT22;37554;50.362;7.568;2023-01-24T04:59:38;10.20;56.40
51476;DHT22;37554;50.362;7.568;2023-01-24T05:02:03;10.20;56.40
51476;DHT22;37554;50.362;7.568;2023-01-24T05:04:29;10.20;56.30
51476;DHT22;37554;50.362;7.568;2023-01-24T05:06:55;10.20;56.40
51476;DHT22;37554;50.362;7.568;2023-01-24T05:09:21;10.20;56.40
51476;DHT22;37554;50.362;7.568;2023-01-24T05:11:47;10.20;56.40
51476;DHT22;37554;50.362;7.568;2023-01-24T05:14:13;10.20;56.40
51476;DHT22;37554;50.362;7.568;2023-01-24T05:16:38;10.20;56.40
51476;DHT22;37554;50.362;7.568;2023-01-24T05:19:05;10.20;56.40
51476;DHT22;37554;50.362;7.568;2023-01-24T05:21:31;10.20;56.40
51476;DHT22;37554;50.362;7.568;2023-01-24T05:23:56;10.10;56.40
51476;DHT22;37554;50.362;7.568;2023-01-24T05:26:24;10.10;56.30
51476;DHT22;37554;50.362;7.568;2023-01-24T05:28:51;10.10;56.30
51476;DHT22;37554;50.362;7.568;2023-01-24T05:31:17;10.10;56.40
51476;DHT22;37554;50.362;7.568;2023-01-24T05:33:43;10.10;56.40
51476;DHT22;37554;50.362;7.568;2023-01-24T05:36:19;10.10;56.30
51476;DHT22;37554;50.362;7.568;2023-01-24T05:38:45;10.20;56.40
51476;DHT22;37554;50.362;7.568;2023-01-24T05:41:13;10.20;56.40
51476;DHT22;37554;50.362;7.568;2023-01-24T05:43:41;10.20;56.30
51476;DHT22;37554;50.362;7.568;2023-01-24T05:46:12;10.30;56.20
51476;DHT22;37554;50.362;7.568;2023-01-24T05:48:38;10.30;56.20
51476;DHT22;37554;50.362;7.568;2023-01-24T05:51:08;10.40;56.00
51476;DHT22;37554;50.362;7.568;2023-01-24T05:53:36;10.20;54.80
51476;DHT22;37554;50.362;7.568;2023-01-24T05:56:07;10.20;56.60
51476;DHT22;37554;50.362;7.568;2023-01-24T05:58:35;10.40;56.70
51476;DHT22;37554;50.362;7.568;2023-01-24T06:01:09;10.50;57.30
51476;DHT22;37554;50.362;7.568;2023-01-24T06:03:37;10.60;56.60
51476;DHT22;37554;50.362;7.568;2023-01-24T06:06:04;10.60;56.60
51476;DHT22;37554;50.362;7.568;2023-01-24T06:08:30;10.70;56.60
51476;DHT22;37554;50.362;7.568;2023-01-24T06:11:11;10.70;56.60
51476;DHT22;37554;50.362;7.568;2023-01-24T06:13:38;10.70;56.50
51476;DHT22;37554;50.362;7.568;2023-01-24T06:16:16;10.70;56.40
51476;DHT22;37554;50.362;7.568;2023-01-24T06:18:43;10.80;56.40
51476;DHT22;37554;50.362;7.568;2023-01-24T06:23:58;10.80;56.30
51476;DHT22;37554;50.362;7.568;2023-01-24T06:26:24;10.80;56.20
51476;DHT22;37554;50.362;7.568;2023-01-24T06:28:50;10.70;56.00
51476;DHT22;37554;50.362;7.568;2023-01-24T06:39:50;10.70;55.80
51476;DHT22;37554;50.362;7.568;2023-01-24T06:42:18;10.70;55.80
51476;DHT22;37554;50.362;7.568;2023-01-24T06:44:43;10.60;55.90
51476;DHT22;37554;50.362;7.568;2023-01-24T06:47:12;10.60;55.90
51476;DHT22;37554;50.362;7.568;2023-01-24T06:49:38;10.60;55.90
51476;DHT22;37554;50.362;7.568;2023-01-24T06:52:04;10.60;55.90
51476;DHT22;37554;50.362;7.568;2023-01-24T06:54:32;10.60;56.00
51476;DHT22;37554;50.362;7.568;2023-01-24T06:56:57;10.50;55.90
51476;DHT22;37554;50.362;7.568;2023-01-24T06:59:23;10.50;55.90
51476;DHT22;37554;50.362;7.568;2023-01-24T07:01:49;10.50;55.90
51476;DHT22;37554;50.362;7.568;2023-01-24T07:04:15;10.50;56.00
51476;DHT22;37554;50.362;7.568;2023-01-24T07:06:41;10.50;56.00
51476;DHT22;37554;50.362;7.568;2023-01-24T07:09:06;10.40;56.00
51476;DHT22;37554;50.362;7.568;2023-01-24T07:11:32;10.40;55.90
51476;DHT22;37554;50.362;7.568;2023-01-24T07:13:58;10.40;55.90
51476;DHT22;37554;50.362;7.568;2023-01-24T07:16:23;10.40;55.90
51476;DHT22;37554;50.362;7.568;2023-01-24T07:18:49;10.40;55.90
51476;DHT22;37554;50.362;7.568;2023-01-24T07:21:15;10.40;56.00
51476;DHT22;37554;50.362;7.568;2023-01-24T07:23:48;10.40;56.10
51476;DHT22;37554;50.362;7.568;2023-01-24T07:26:14;10.40;56.10
51476;DHT22;37554;50.362;7.568;2023-01-24T07:28:41;10.40;56.00
51476;DHT22;37554;50.362;7.568;2023-01-24T07:31:10;10.40;56.00
51476;DHT22;37554;50.362;7.568;2023-01-24T07:33:37;10.50;56.00
51476;DHT22;37554;50.362;7.568;2023-01-24T07:36:11;10.50;56.00
51476;DHT22;37554;50.362;7.568;2023-01-24T07:38:37;10.50;55.90
51476;DHT22;37554;50.362;7.568;2023-01-24T07:41:09;10.60;55.90
51476;DHT22;37554;50.362;7.568;2023-01-24T07:43:35;10.60;55.80
51476;DHT22;37554;50.362;7.568;2023-01-24T07:46:00;10.60;55.80
51476;DHT22;37554;50.362;7.568;2023-01-24T07:48:26;10.60;55.70
51476;DHT22;37554;50.362;7.568;2023-01-24T07:50:52;10.60;55.70
51476;DHT22;37554;50.362;7.568;2023-01-24T07:53:17;10.60;55.70
51476;DHT22;37554;50.362;7.568;2023-01-24T07:55:43;10.60;55.70
51476;DHT22;37554;50.362;7.568;2023-01-24T07:58:08;10.60;55.70
51476;DHT22;37554;50.362;7.568;2023-01-24T08:00:34;10.60;55.70
51476;DHT22;37554;50.362;7.568;2023-01-24T08:02:59;10.60;55.60
51476;DHT22;37554;50.362;7.568;2023-01-24T08:05:25;10.60;55.70
51476;DHT22;37554;50.362;7.568;2023-01-24T08:07:52;10.60;55.50
51476;DHT22;37554;50.362;7.568;2023-01-24T08:10:18;10.60;55.60
51476;DHT22;37554;50.362;7.568;2023-01-24T08:12:44;10.60;55.70
51476;DHT22;37554;50.362;7.568;2023-01-24T08:15:10;10.60;55.70
51476;DHT22;37554;50.362;7.568;2023-01-24T08:17:36;10.60;55.60
51476;DHT22;37554;50.362;7.568;2023-01-24T08:20:03;10.60;55.70
51476;DHT22;37554;50.362;7.568;2023-01-24T08:22:29;10.50;55.80
51476;DHT22;37554;50.362;7.568;2023-01-24T08:24:55;10.60;55.80
51476;DHT22;37554;50.362;7.568;2023-01-24T08:27:21;10.60;55.90
51476;DHT22;37554;50.362;7.568;2023-01-24T08:29:46;10.50;55.90
51476;DHT22;37554;50.362;7.568;2023-01-24T08:32:12;10.50;55.90
51476;DHT22;37554;50.362;7.568;2023-01-24T08:34:38;10.50;55.90
51476;DHT22;37554;50.362;7.568;2023-01-24T08:37:04;10.50;56.00
51476;DHT22;37554;50.362;7.568;2023-01-24T08:39:29;10.50;56.00
51476;DHT22;37554;50.362;7.568;2023-01-24T08:41:55;10.50;56.00
51476;DHT22;37554;50.362;7.568;2023-01-24T08:44:21;10.50;56.00
51476;DHT22;37554;50.362;7.568;2023-01-24T08:46:47;10.50;56.00
51476;DHT22;37554;50.362;7.568;2023-01-24T08:49:12;10.50;56.00
51476;DHT22;37554;50.362;7.568;2023-01-24T08:51:38;10.50;56.00
51476;DHT22;37554;50.362;7.568;2023-01-24T08:54:06;10.50;56.00
51476;DHT22;37554;50.362;7.568;2023-01-24T08:56:33;10.60;56.00
51476;DHT22;37554;50.362;7.568;2023-01-24T08:58:59;10.60;56.00
51476;DHT22;37554;50.362;7.568;2023-01-24T09:01:25;10.60;56.00
51476;DHT22;37554;50.362;7.568;2023-01-24T09:03:52;10.60;55.90
51476;DHT22;37554;50.362;7.568;2023-01-24T09:06:20;10.60;56.00
51476;DHT22;37554;50.362;7.568;2023-01-24T09:08:46;10.60;55.80
51476;DHT22;37554;50.362;7.568;2023-01-24T09:11:12;10.60;55.90
51476;DHT22;37554;50.362;7.568;2023-01-24T09:13:38;10.60;55.90
51476;DHT22;37554;50.362;7.568;2023-01-24T09:16:04;10.60;55.80
51476;DHT22;37554;50.362;7.568;2023-01-24T09:18:30;10.70;55.90
51476;DHT22;37554;50.362;7.568;2023-01-24T09:21:00;10.60;55.80
51476;DHT22;37554;50.362;7.568;2023-01-24T09:23:25;10.60;56.00
51476;DHT22;37554;50.362;7.568;2023-01-24T09:25:52;10.60;55.90
51476;DHT22;37554;50.362;7.568;2023-01-24T09:28:18;10.60;55.90
51476;DHT22;37554;50.362;7.568;2023-01-24T09:30:47;10.60;56.00
51476;DHT22;37554;50.362;7.568;2023-01-24T09:33:13;10.60;56.00
51476;DHT22;37554;50.362;7.568;2023-01-24T09:35:39;10.60;55.90
51476;DHT22;37554;50.362;7.568;2023-01-24T09:38:05;10.70;56.00
51476;DHT22;37554;50.362;7.568;2023-01-24T09:40:55;10.70;56.00
51476;DHT22;37554;50.362;7.568;2023-01-24T09:43:50;10.70;56.00
51476;DHT22;37554;50.362;7.568;2023-01-24T09:46:30;10.70;55.80
51476;DHT22;37554;50.362;7.568;2023-01-24T09:49:31;10.70;55.80
51476;DHT22;37554;50.362;7.568;2023-01-24T09:51:59;10.70;55.80
51476;DHT22;37554;50.362;7.568;2023-01-24T09:54:36;10.70;55.70
51476;DHT22;37554;50.362;7.568;2023-01-24T09:57:13;10.70;55.70
51476;DHT22;37554;50.362;7.568;2023-01-24T09:59:46;10.70;55.80
51476;DHT22;37554;50.362;7.568;2023-01-24T10:02:18;10.70;55.80
51476;DHT22;37554;50.362;7.568;2023-01-24T10:04:46;10.70;55.80
51476;DHT22;37554;50.362;7.568;2023-01-24T10:23:57;10.70;55.70
51476;DHT22;37554;50.362;7.568;2023-01-24T10:26:46;10.80;55.70
51476;DHT22;37554;50.362;7.568;2023-01-24T10:34:31;10.70;56.30
51476;DHT22;37554;50.362;7.568;2023-01-24T10:39:35;10.70;55.70
51476;DHT22;37554;50.362;7.568;2023-01-24T10:42:07;10.80;55.80
51476;DHT22;37554;50.362;7.568;2023-01-24T10:44:39;10.80;55.60
51476;DHT22;37554;50.362;7.568;2023-01-24T10:49:40;10.80;55.70
51476;DHT22;37554;50.362;7.568;2023-01-24T10:52:08;10.80;55.70
51476;DHT22;37554;50.362;7.568;2023-01-24T10:54:45;10.70;55.60
51476;DHT22;37554;50.362;7.568;2023-01-24T11:02:56;10.70;55.70
51476;DHT22;37554;50.362;7.568;2023-01-24T11:05:24;10.80;55.70
51476;DHT22;37554;50.362;7.568;2023-01-24T11:07:50;10.80;55.60
51476;DHT22;37554;50.362;7.568;2023-01-24T11:10:27;10.80;55.60
51476;DHT22;37554;50.362;7.568;2023-01-24T11:12:57;10.80;55.60
51476;DHT22;37554;50.362;7.568;2023-01-24T11:15:29;10.80;55.50
51476;DHT22;37554;50.362;7.568;2023-01-24T11:18:07;10.80;55.40
51476;DHT22;37554;50.362;7.568;2023-01-24T11:20:38;10.80;55.40
51476;DHT22;37554;50.362;7.568;2023-01-24T11:23:18;10.80;55.50
51476;DHT22;37554;50.362;7.568;2023-01-24T11:30:59;10.80;55.20
51476;DHT22;37554;50.362;7.568;2023-01-24T11:39:02;10.80;55.20
51476;DHT22;37554;50.362;7.568;2023-01-24T11:41:44;10.80;55.40
51476;DHT22;37554;50.362;7.568;2023-01-24T11:45:00;10.90;55.40
51476;DHT22;37554;50.362;7.568;2023-01-24T11:47:25;10.90;55.30
51476;DHT22;37554;50.362;7.568;2023-01-24T12:01:21;10.90;55.20
51476;DHT22;37554;50.362;7.568;2023-01-24T12:04:19;10.90;55.20
51476;DHT22;37554;50.362;7.568;2023-01-24T12:09:31;10.90;55.10
51476;DHT22;37554;50.362;7.568;2023-01-24T12:12:05;11.00;55.20
51476;DHT22;37554;50.362;7.568;2023-01-24T12:14:56;11.00;55.20
51476;DHT22;37554;50.362;7.568;2023-01-24T12:22:55;10.90;55.10
51476;DHT22;37554;50.362;7.568;2023-01-24T12:25:31;10.90;55.20
51476;DHT22;37554;50.362;7.568;2023-01-24T12:28:02;10.90;55.10
51476;DHT22;37554;50.362;7.568;2023-01-24T12:30:34;10.90;55.10
51476;DHT22;37554;50.362;7.568;2023-01-24T12:33:20;11.00;55.10
51476;DHT22;37554;50.362;7.568;2023-01-24T12:35:54;10.90;55.10
51476;DHT22;37554;50.362;7.568;2023-01-24T12:39:00;10.80;54.30
51476;DHT22;37554;50.362;7.568;2023-01-24T12:41:31;10.40;53.50
51476;DHT22;37554;50.362;7.568;2023-01-24T12:55:22;10.80;55.00
51476;DHT22;37554;50.362;7.568;2023-01-24T13:00:27;11.20;54.40
51476;DHT22;37554;50.362;7.568;2023-01-24T13:08:54;11.50;53.70
51476;DHT22;37554;50.362;7.568;2023-01-24T13:11:24;11.50;53.80
51476;DHT22;37554;50.362;7.568;2023-01-24T13:28:32;11.60;54.00
51476;DHT22;37554;50.362;7.568;2023-01-24T13:31:17;11.60;54.00
51476;DHT22;37554;50.362;7.568;2023-01-24T13:33:57;11.60;53.90
51476;DHT22;37554;50.362;7.568;2023-01-24T13:36:31;11.60;53.90
51476;DHT22;37554;50.362;7.568;2023-01-24T13:38:57;11.50;53.90
51476;DHT22;37554;50.362;7.568;2023-01-24T13:52:02;11.40;53.80
51476;DHT22;37554;50.362;7.568;2023-01-24T13:54:42;11.40;53.90
51476;DHT22;37554;50.362;7.568;2023-01-24T13:57:22;11.40;54.00
51476;DHT22;37554;50.362;7.568;2023-01-24T14:02:30;11.30;53.90
51476;DHT22;37554;50.362;7.568;2023-01-24T14:04:57;11.30;54.00
51476;DHT22;37554;50.362;7.568;2023-01-24T14:07:36;11.30;54.10
51476;DHT22;37554;50.362;7.568;2023-01-24T14:10:04;11.20;54.10
51476;DHT22;37554;50.362;7.568;2023-01-24T14:12:36;11.30;54.20
51476;DHT22;37554;50.362;7.568;2023-01-24T14:20:43;11.20;54.10
51476;DHT22;37554;50.362;7.568;2023-01-24T14:23:22;11.20;54.10
51476;DHT22;37554;50.362;7.568;2023-01-24T14:25:55;11.10;54.10
51476;DHT22;37554;50.362;7.568;2023-01-24T14:31:02;11.10;54.30
51476;DHT22;37554;50.362;7.568;2023-01-24T14:33:49;11.10;54.30
51476;DHT22;37554;50.362;7.568;2023-01-24T14:36:27;11.10;54.20
51476;DHT22;37554;50.362;7.568;2023-01-24T14:39:25;11.00;54.30
51476;DHT22;37554;50.362;7.568;2023-01-24T14:41:52;11.00;54.20
51476;DHT22;37554;50.362;7.568;2023-01-24T14:44:27;11.00;54.40
51476;DHT22;37554;50.362;7.568;2023-01-24T14:47:13;11.00;54.40
51476;DHT22;37554;50.362;7.568;2023-01-24T14:49:46;11.00;54.50
51476;DHT22;37554;50.362;7.568;2023-01-24T14:52:23;11.00;54.50
51476;DHT22;37554;50.362;7.568;2023-01-24T14:54:52;11.00;54.50
51476;DHT22;37554;50.362;7.568;2023-01-24T14:57:28;11.00;54.50
51476;DHT22;37554;50.362;7.568;2023-01-24T15:00:13;10.90;55.10
51476;DHT22;37554;50.362;7.568;2023-01-24T15:02:51;11.00;54.50
51476;DHT22;37554;50.362;7.568;2023-01-24T15:05:37;10.90;54.50
51476;DHT22;37554;50.362;7.568;2023-01-24T15:08:14;10.90;54.50
51476;DHT22;37554;50.362;7.568;2023-01-24T15:10:41;10.90;54.50
51476;DHT22;37554;50.362;7.568;2023-01-24T15:13:24;10.90;54.60
51476;DHT22;37554;50.362;7.568;2023-01-24T15:15:50;10.90;54.60
51476;DHT22;37554;50.362;7.568;2023-01-24T15:18:35;10.90;54.60
51476;DHT22;37554;50.362;7.568;2023-01-24T15:21:02;10.90;55.20
51476;DHT22;37554;50.362;7.568;2023-01-24T15:23:30;10.90;54.50
51476;DHT22;37554;50.362;7.568;2023-01-24T15:25:56;10.90;54.50
51476;DHT22;37554;50.362;7.568;2023-01-24T15:28:29;10.90;54.50
51476;DHT22;37554;50.362;7.568;2023-01-24T15:31:00;10.90;54.50
51476;DHT22;37554;50.362;7.568;2023-01-24T15:33:39;10.90;54.50
51476;DHT22;37554;50.362;7.568;2023-01-24T15:36:30;10.90;54.40
51476;DHT22;37554;50.362;7.568;2023-01-24T15:38:58;10.90;54.40
51476;DHT22;37554;50.362;7.568;2023-01-24T15:41:26;10.90;54.50
51476;DHT22;37554;50.362;7.568;2023-01-24T15:44:10;10.80;54.50
51476;DHT22;37554;50.362;7.568;2023-01-24T15:46:39;10.80;54.50
51476;DHT22;37554;50.362;7.568;2023-01-24T15:49:38;10.80;54.50
51476;DHT22;37554;50.362;7.568;2023-01-24T15:54:33;10.80;54.50
51476;DHT22;37554;50.362;7.568;2023-01-24T15:57:01;10.80;54.50
51476;DHT22;37554;50.362;7.568;2023-01-24T15:59:28;10.80;54.50
51476;DHT22;37554;50.362;7.568;2023-01-24T16:01:54;10.70;54.50
51476;DHT22;37554;50.362;7.568;2023-01-24T16:04:21;10.70;54.50
51476;DHT22;37554;50.362;7.568;2023-01-24T16:06:48;10.70;54.60
51476;DHT22;37554;50.362;7.568;2023-01-24T16:09:14;10.70;54.50
51476;DHT22;37554;50.362;7.568;2023-01-24T16:11:42;10.70;54.60
51476;DHT22;37554;50.362;7.568;2023-01-24T16:14:17;10.70;54.70
51476;DHT22;37554;50.362;7.568;2023-01-24T16:16:44;10.70;54.80
51476;DHT22;37554;50.362;7.568;2023-01-24T16:19:15;10.60;54.80
51476;DHT22;37554;50.362;7.568;2023-01-24T16:21:42;10.60;54.70
51476;DHT22;37554;50.362;7.568;2023-01-24T16:24:08;10.60;54.70
51476;DHT22;37554;50.362;7.568;2023-01-24T16:26:33;10.60;54.60
51476;DHT22;37554;50.362;7.568;2023-01-24T16:28:59;10.60;54.60
51476;DHT22;37554;50.362;7.568;2023-01-24T16:31:25;10.60;54.70
51476;DHT22;37554;50.362;7.568;2023-01-24T16:33:50;10.60;54.80
51476;DHT22;37554;50.362;7.568;2023-01-24T16:36:16;10.60;54.80
51476;DHT22;37554;50.362;7.568;2023-01-24T16:38:42;10.60;54.90
51476;DHT22;37554;50.362;7.568;2023-01-24T16:41:09;10.60;54.90
51476;DHT22;37554;50.362;7.568;2023-01-24T16:43:36;10.60;54.80
51476;DHT22;37554;50.362;7.568;2023-01-24T16:46:01;10.60;54.70
51476;DHT22;37554;50.362;7.568;2023-01-24T16:48:29;10.60;54.70
51476;DHT22;37554;50.362;7.568;2023-01-24T16:50:55;10.60;54.80
51476;DHT22;37554;50.362;7.568;2023-01-24T16:53:21;10.70;54.70
51476;DHT22;37554;50.362;7.568;2023-01-24T16:55:55;10.70;54.70
51476;DHT22;37554;50.362;7.568;2023-01-24T16:58:21;10.70;54.80
51476;DHT22;37554;50.362;7.568;2023-01-24T17:00:47;10.70;54.70
51476;DHT22;37554;50.362;7.568;2023-01-24T17:03:13;10.70;54.70
51476;DHT22;37554;50.362;7.568;2023-01-24T17:05:39;10.70;54.60
51476;DHT22;37554;50.362;7.568;2023-01-24T17:08:05;10.70;54.70
51476;DHT22;37554;50.362;7.568;2023-01-24T17:10:31;10.60;54.70
51476;DHT22;37554;50.362;7.568;2023-01-24T17:12:57;10.60;54.80
51476;DHT22;37554;50.362;7.568;2023-01-24T17:15:22;10.60;54.80
51476;DHT22;37554;50.362;7.568;2023-01-24T17:17:48;10.60;54.80
51476;DHT22;37554;50.362;7.568;2023-01-24T17:20:14;10.60;54.80
51476;DHT22;37554;50.362;7.568;2023-01-24T17:22:40;10.60;54.70
51476;DHT22;37554;50.362;7.568;2023-01-24T17:25:06;10.60;54.80
51476;DHT22;37554;50.362;7.568;2023-01-24T17:27:32;10.60;54.80
51476;DHT22;37554;50.362;7.568;2023-01-24T17:29:58;10.50;54.90
51476;DHT22;37554;50.362;7.568;2023-01-24T17:32:23;10.50;54.90
51476;DHT22;37554;50.362;7.568;2023-01-24T17:34:49;10.50;54.80
51476;DHT22;37554;50.362;7.568;2023-01-24T17:37:15;10.50;54.80
51476;DHT22;37554;50.362;7.568;2023-01-24T17:39:40;10.50;54.80
51476;DHT22;37554;50.362;7.568;2023-01-24T17:42:06;10.50;54.90
51476;DHT22;37554;50.362;7.568;2023-01-24T17:44:31;10.50;55.00
51476;DHT22;37554;50.362;7.568;2023-01-24T17:46:57;10.50;55.00
51476;DHT22;37554;50.362;7.568;2023-01-24T17:49:23;10.50;55.00
51476;DHT22;37554;50.362;7.568;2023-01-24T17:51:48;10.50;55.00
51476;DHT22;37554;50.362;7.568;2023-01-24T17:54:15;10.50;55.00
51476;DHT22;37554;50.362;7.568;2023-01-24T17:56:44;10.50;55.10
51476;DHT22;37554;50.362;7.568;2023-01-24T17:59:10;10.50;55.00
51476;DHT22;37554;50.362;7.568;2023-01-24T18:01:35;10.50;55.00
51476;DHT22;37554;50.362;7.568;2023-01-24T18:04:01;10.50;55.00
51476;DHT22;37554;50.362;7.568;2023-01-24T18:06:29;10.50;55.10
51476;DHT22;37554;50.362;7.568;2023-01-24T18:08:55;10.50;55.00
51476;DHT22;37554;50.362;7.568;2023-01-24T18:11:20;10.50;55.10